sensor_id;sensor_type;location;lat;lon;timestamp;pressure;altitude;pressure_sealevel;temperature;humidity
44663;BME280;30381;52.754;18.258;2023-11-22T00:00:43;101566.98;;;-3.87;100.00
44663;BME280;30381;52.754;18.258;2023-11-22T00:03:32;101572.66;;;-3.90;100.00
44663;BME280;30381;52.754;18.258;2023-11-22T00:06:00;101576.83;;;-3.92;100.00
44663;BME280;30381;52.754;18.258;2023-11-22T00:08:29;101582.55;;;-3.93;100.00
44663;BME280;30381;52.754;18.258;2023-11-22T00:11:02;101579.21;;;-3.95;100.00
44663;BME280;30381;52.754;18.258;2023-11-22T00:13:29;101571.56;;;-3.97;100.00
44663;BME280;30381;52.754;18.258;2023-11-22T00:16:18;101574.42;;;-3.99;100.00
44663;BME280;30381;52.754;18.258;2023-11-22T00:18:53;101576.33;;;-4.01;100.00
44663;BME280;30381;52.754;18.258;2023-11-22T00:21:40;101571.17;;;-4.03;100.00
44663;BME280;30381;52.754;18.258;2023-11-22T00:24:07;101569.08;;;-4.05;100.00
44663;BME280;30381;52.754;18.258;2023-11-22T00:26:36;101569.33;;;-4.06;100.00
44663;BME280;30381;52.754;18.258;2023-11-22T00:29:05;101570.64;;;-4.07;100.00
44663;BME280;30381;52.754;18.258;2023-11-22T00:31:34;101571.61;;;-4.10;100.00
44663;BME280;30381;52.754;18.258;2023-11-22T00:34:01;101581.20;;;-4.12;100.00
44663;BME280;30381;52.754;18.258;2023-11-22T00:36:27;101589.91;;;-4.13;100.00
44663;BME280;30381;52.754;18.258;2023-11-22T00:38:55;101590.80;;;-4.15;100.00
44663;BME280;30381;52.754;18.258;2023-11-22T00:41:30;101591.48;;;-4.15;100.00
44663;BME280;30381;52.754;18.258;2023-11-22T00:43:57;101597.09;;;-4.17;100.00
44663;BME280;30381;52.754;18.258;2023-11-22T00:46:24;101599.68;;;-4.18;100.00
44663;BME280;30381;52.754;18.258;2023-11-22T00:48:51;101607.18;;;-4.20;100.00
44663;BME280;30381;52.754;18.258;2023-11-22T00:51:18;101609.70;;;-4.20;100.00
44663;BME280;30381;52.754;18.258;2023-11-22T00:53:47;101608.38;;;-4.21;100.00
44663;BME280;30381;52.754;18.258;2023-11-22T00:56:14;101608.24;;;-4.22;100.00
44663;BME280;30381;52.754;18.258;2023-11-22T00:58:41;101608.54;;;-4.23;100.00
44663;BME280;30381;52.754;18.258;2023-11-22T01:01:09;101608.64;;;-4.25;100.00
44663;BME280;30381;52.754;18.258;2023-11-22T01:03:37;101603.48;;;-4.26;100.00
44663;BME280;30381;52.754;18.258;2023-11-22T01:06:03;101613.95;;;-4.27;100.00
44663;BME280;30381;52.754;18.258;2023-11-22T01:08:32;101618.86;;;-4.29;100.00
44663;BME280;30381;52.754;18.258;2023-11-22T01:10:59;101616.52;;;-4.31;100.00
44663;BME280;30381;52.754;18.258;2023-11-22T01:13:26;101614.71;;;-4.32;100.00
44663;BME280;30381;52.754;18.258;2023-11-22T01:15:53;101616.95;;;-4.34;100.00
44663;BME280;30381;52.754;18.258;2023-11-22T01:18:20;101618.06;;;-4.35;100.00
44663;BME280;30381;52.754;18.258;2023-11-22T01:20:47;101618.55;;;-4.37;100.00
44663;BME280;30381;52.754;18.258;2023-11-22T01:23:14;101620.30;;;-4.39;100.00
44663;BME280;30381;52.754;18.258;2023-11-22T01:25:40;101624.67;;;-4.41;100.00
44663;BME280;30381;52.754;18.258;2023-11-22T01:28:06;101633.33;;;-4.44;100.00
44663;BME280;30381;52.754;18.258;2023-11-22T01:30:33;101638.55;;;-4.45;100.00
44663;BME280;30381;52.754;18.258;2023-11-22T01:33:00;101637.41;;;-4.47;100.00
44663;BME280;30381;52.754;18.258;2023-11-22T01:35:26;101646.58;;;-4.49;100.00
44663;BME280;30381;52.754;18.258;2023-11-22T01:37:53;101644.58;;;-4.51;100.00
44663;BME280;30381;52.754;18.258;2023-11-22T01:40:19;101647.35;;;-4.52;100.00
44663;BME280;30381;52.754;18.258;2023-11-22T01:42:46;101656.50;;;-4.55;100.00
44663;BME280;30381;52.754;18.258;2023-11-22T01:45:12;101665.95;;;-4.57;100.00
44663;BME280;30381;52.754;18.258;2023-11-22T01:47:39;101669.61;;;-4.58;100.00
44663;BME280;30381;52.754;18.258;2023-11-22T01:50:06;101666.02;;;-4.60;100.00
44663;BME280;30381;52.754;18.258;2023-11-22T01:52:34;101673.36;;;-4.61;100.00
44663;BME280;30381;52.754;18.258;2023-11-22T01:55:02;101667.25;;;-4.64;100.00
44663;BME280;30381;52.754;18.258;2023-11-22T01:57:31;101656.86;;;-4.67;100.00
44663;BME280;30381;52.754;18.258;2023-11-22T02:00:02;101657.46;;;-4.67;100.00
44663;BME280;30381;52.754;18.258;2023-11-22T02:02:33;101656.95;;;-4.70;100.00
44663;BME280;30381;52.754;18.258;2023-11-22T02:05:00;101655.09;;;-4.73;100.00
44663;BME280;30381;52.754;18.258;2023-11-22T02:07:27;101654.95;;;-4.77;100.00
44663;BME280;30381;52.754;18.258;2023-11-22T02:09:53;101655.35;;;-4.80;100.00
44663;BME280;30381;52.754;18.258;2023-11-22T02:12:20;101670.67;;;-4.82;100.00
44663;BME280;30381;52.754;18.258;2023-11-22T02:14:47;101684.20;;;-4.85;100.00
44663;BME280;30381;52.754;18.258;2023-11-22T02:17:14;101693.50;;;-4.87;100.00
44663;BME280;30381;52.754;18.258;2023-11-22T02:19:40;101691.33;;;-4.88;100.00
44663;BME280;30381;52.754;18.258;2023-11-22T02:22:06;101697.58;;;-4.89;100.00
44663;BME280;30381;52.754;18.258;2023-11-22T02:24:33;101706.05;;;-4.92;100.00
44663;BME280;30381;52.754;18.258;2023-11-22T02:27:00;101711.38;;;-4.95;100.00
44663;BME280;30381;52.754;18.258;2023-11-22T02:29:26;101716.39;;;-4.97;100.00
44663;BME280;30381;52.754;18.258;2023-11-22T02:31:54;101718.98;;;-4.98;100.00
44663;BME280;30381;52.754;18.258;2023-11-22T02:34:20;101712.53;;;-4.99;100.00
44663;BME280;30381;52.754;18.258;2023-11-22T02:36:46;101710.27;;;-4.99;100.00
44663;BME280;30381;52.754;18.258;2023-11-22T02:39:13;101706.67;;;-5.01;100.00
44663;BME280;30381;52.754;18.258;2023-11-22T02:41:40;101708.61;;;-5.03;100.00
44663;BME280;30381;52.754;18.258;2023-11-22T02:44:06;101710.28;;;-5.04;100.00
44663;BME280;30381;52.754;18.258;2023-11-22T02:46:33;101711.58;;;-5.06;100.00
44663;BME280;30381;52.754;18.258;2023-11-22T02:48:59;101713.32;;;-5.08;100.00
44663;BME280;30381;52.754;18.258;2023-11-22T02:51:25;101719.30;;;-5.10;100.00
44663;BME280;30381;52.754;18.258;2023-11-22T02:53:53;101721.91;;;-5.12;100.00
44663;BME280;30381;52.754;18.258;2023-11-22T02:56:19;101729.63;;;-5.14;100.00
44663;BME280;30381;52.754;18.258;2023-11-22T02:58:47;101737.20;;;-5.14;100.00
44663;BME280;30381;52.754;18.258;2023-11-22T03:01:13;101738.48;;;-5.15;100.00
44663;BME280;30381;52.754;18.258;2023-11-22T03:03:39;101737.15;;;-5.16;100.00
44663;BME280;30381;52.754;18.258;2023-11-22T03:06:06;101748.45;;;-5.17;100.00
44663;BME280;30381;52.754;18.258;2023-11-22T03:08:32;101750.54;;;-5.19;100.00
44663;BME280;30381;52.754;18.258;2023-11-22T03:10:59;101748.45;;;-5.19;100.00
44663;BME280;30381;52.754;18.258;2023-11-22T03:13:25;101757.08;;;-5.20;100.00
44663;BME280;30381;52.754;18.258;2023-11-22T03:15:51;101764.84;;;-5.17;100.00
44663;BME280;30381;52.754;18.258;2023-11-22T03:18:18;101766.55;;;-5.14;100.00
44663;BME280;30381;52.754;18.258;2023-11-22T03:20:44;101766.85;;;-5.13;100.00
44663;BME280;30381;52.754;18.258;2023-11-22T03:23:11;101768.76;;;-5.13;100.00
44663;BME280;30381;52.754;18.258;2023-11-22T03:25:37;101769.48;;;-5.13;100.00
44663;BME280;30381;52.754;18.258;2023-11-22T03:28:03;101769.45;;;-5.13;100.00
44663;BME280;30381;52.754;18.258;2023-11-22T03:30:30;101772.53;;;-5.14;100.00
44663;BME280;30381;52.754;18.258;2023-11-22T03:32:56;101779.06;;;-5.15;100.00
44663;BME280;30381;52.754;18.258;2023-11-22T03:35:22;101781.06;;;-5.15;100.00
44663;BME280;30381;52.754;18.258;2023-11-22T03:37:49;101778.39;;;-5.15;100.00
44663;BME280;30381;52.754;18.258;2023-11-22T03:40:15;101776.59;;;-5.14;100.00
44663;BME280;30381;52.754;18.258;2023-11-22T03:42:41;101768.52;;;-5.15;100.00
44663;BME280;30381;52.754;18.258;2023-11-22T03:45:08;101766.46;;;-5.16;100.00
44663;BME280;30381;52.754;18.258;2023-11-22T03:47:34;101765.45;;;-5.16;100.00
44663;BME280;30381;52.754;18.258;2023-11-22T03:50:05;101764.25;;;-5.16;100.00
44663;BME280;30381;52.754;18.258;2023-11-22T03:52:32;101766.71;;;-5.19;100.00
44663;BME280;30381;52.754;18.258;2023-11-22T03:54:58;101772.08;;;-5.21;100.00
44663;BME280;30381;52.754;18.258;2023-11-22T03:57:24;101769.42;;;-5.23;100.00
44663;BME280;30381;52.754;18.258;2023-11-22T03:59:51;101767.32;;;-5.25;100.00
44663;BME280;30381;52.754;18.258;2023-11-22T04:02:17;101766.97;;;-5.28;100.00
44663;BME280;30381;52.754;18.258;2023-11-22T04:04:43;101769.99;;;-5.31;100.00
44663;BME280;30381;52.754;18.258;2023-11-22T04:07:10;101781.11;;;-5.34;100.00
44663;BME280;30381;52.754;18.258;2023-11-22T04:09:37;101791.16;;;-5.37;100.00
44663;BME280;30381;52.754;18.258;2023-11-22T04:12:04;101786.67;;;-5.41;100.00
44663;BME280;30381;52.754;18.258;2023-11-22T04:14:30;101787.71;;;-5.45;100.00
44663;BME280;30381;52.754;18.258;2023-11-22T04:16:56;101796.58;;;-5.49;100.00
44663;BME280;30381;52.754;18.258;2023-11-22T04:19:23;101798.34;;;-5.52;100.00
44663;BME280;30381;52.754;18.258;2023-11-22T04:21:49;101808.45;;;-5.56;100.00
44663;BME280;30381;52.754;18.258;2023-11-22T04:24:15;101813.57;;;-5.59;100.00
44663;BME280;30381;52.754;18.258;2023-11-22T04:26:42;101808.36;;;-5.62;100.00
44663;BME280;30381;52.754;18.258;2023-11-22T04:29:08;101801.82;;;-5.64;100.00
44663;BME280;30381;52.754;18.258;2023-11-22T04:31:34;101806.06;;;-5.68;100.00
44663;BME280;30381;52.754;18.258;2023-11-22T04:34:00;101818.27;;;-5.72;100.00
44663;BME280;30381;52.754;18.258;2023-11-22T04:36:26;101825.24;;;-5.73;100.00
44663;BME280;30381;52.754;18.258;2023-11-22T04:38:53;101819.45;;;-5.76;100.00
44663;BME280;30381;52.754;18.258;2023-11-22T04:41:19;101822.63;;;-5.79;100.00
44663;BME280;30381;52.754;18.258;2023-11-22T04:43:45;101827.27;;;-5.82;100.00
44663;BME280;30381;52.754;18.258;2023-11-22T04:46:12;101835.61;;;-5.86;100.00
44663;BME280;30381;52.754;18.258;2023-11-22T04:48:38;101836.91;;;-5.89;100.00
44663;BME280;30381;52.754;18.258;2023-11-22T04:51:06;101840.86;;;-5.91;100.00
44663;BME280;30381;52.754;18.258;2023-11-22T04:53:32;101839.09;;;-5.93;100.00
44663;BME280;30381;52.754;18.258;2023-11-22T04:55:59;101840.50;;;-5.96;100.00
44663;BME280;30381;52.754;18.258;2023-11-22T04:58:25;101847.27;;;-6.00;100.00
44663;BME280;30381;52.754;18.258;2023-11-22T05:00:51;101853.98;;;-6.03;100.00
44663;BME280;30381;52.754;18.258;2023-11-22T05:03:18;101857.08;;;-6.08;100.00
44663;BME280;30381;52.754;18.258;2023-11-22T05:05:44;101860.54;;;-6.13;100.00
44663;BME280;30381;52.754;18.258;2023-11-22T05:08:11;101868.45;;;-6.16;100.00
44663;BME280;30381;52.754;18.258;2023-11-22T05:10:37;101881.64;;;-6.16;100.00
44663;BME280;30381;52.754;18.258;2023-11-22T05:13:03;101888.83;;;-6.18;100.00
44663;BME280;30381;52.754;18.258;2023-11-22T05:15:31;101904.40;;;-6.20;100.00
44663;BME280;30381;52.754;18.258;2023-11-22T05:17:57;101903.52;;;-6.20;100.00
44663;BME280;30381;52.754;18.258;2023-11-22T05:20:24;101903.31;;;-6.22;100.00
44663;BME280;30381;52.754;18.258;2023-11-22T05:22:50;101908.80;;;-6.26;100.00
44663;BME280;30381;52.754;18.258;2023-11-22T05:25:16;101909.88;;;-6.29;100.00
44663;BME280;30381;52.754;18.258;2023-11-22T05:27:43;101912.61;;;-6.31;100.00
44663;BME280;30381;52.754;18.258;2023-11-22T05:30:10;101913.83;;;-6.33;100.00
44663;BME280;30381;52.754;18.258;2023-11-22T05:32:36;101918.69;;;-6.35;100.00
44663;BME280;30381;52.754;18.258;2023-11-22T05:35:03;101925.23;;;-6.36;100.00
44663;BME280;30381;52.754;18.258;2023-11-22T05:37:32;101933.13;;;-6.39;100.00
44663;BME280;30381;52.754;18.258;2023-11-22T05:39:58;101932.59;;;-6.41;100.00
44663;BME280;30381;52.754;18.258;2023-11-22T05:42:25;101929.40;;;-6.43;100.00
44663;BME280;30381;52.754;18.258;2023-11-22T05:44:51;101922.66;;;-6.48;100.00
44663;BME280;30381;52.754;18.258;2023-11-22T05:47:17;101920.70;;;-6.50;100.00
44663;BME280;30381;52.754;18.258;2023-11-22T05:49:44;101928.19;;;-6.52;100.00
44663;BME280;30381;52.754;18.258;2023-11-22T05:52:10;101935.44;;;-6.54;100.00
44663;BME280;30381;52.754;18.258;2023-11-22T05:54:37;101940.59;;;-6.51;100.00
44663;BME280;30381;52.754;18.258;2023-11-22T05:57:03;101939.30;;;-6.47;100.00
44663;BME280;30381;52.754;18.258;2023-11-22T05:59:30;101939.66;;;-6.47;100.00
44663;BME280;30381;52.754;18.258;2023-11-22T06:01:56;101930.87;;;-6.50;100.00
44663;BME280;30381;52.754;18.258;2023-11-22T06:04:22;101925.92;;;-6.53;100.00
44663;BME280;30381;52.754;18.258;2023-11-22T06:06:49;101928.14;;;-6.58;100.00
44663;BME280;30381;52.754;18.258;2023-11-22T06:09:15;101923.23;;;-6.60;100.00
44663;BME280;30381;52.754;18.258;2023-11-22T06:11:41;101923.54;;;-6.65;100.00
44663;BME280;30381;52.754;18.258;2023-11-22T06:14:07;101929.08;;;-6.67;100.00
44663;BME280;30381;52.754;18.258;2023-11-22T06:16:33;101930.62;;;-6.66;100.00
44663;BME280;30381;52.754;18.258;2023-11-22T06:19:00;101937.80;;;-6.66;100.00
44663;BME280;30381;52.754;18.258;2023-11-22T06:21:26;101943.48;;;-6.64;100.00
44663;BME280;30381;52.754;18.258;2023-11-22T06:23:53;101948.14;;;-6.63;100.00
44663;BME280;30381;52.754;18.258;2023-11-22T06:26:24;101965.69;;;-6.60;100.00
44663;BME280;30381;52.754;18.258;2023-11-22T06:28:50;101965.87;;;-6.58;100.00
44663;BME280;30381;52.754;18.258;2023-11-22T06:31:17;101970.98;;;-6.58;100.00
44663;BME280;30381;52.754;18.258;2023-11-22T06:33:43;101973.67;;;-6.59;100.00
44663;BME280;30381;52.754;18.258;2023-11-22T06:36:09;101974.60;;;-6.57;100.00
44663;BME280;30381;52.754;18.258;2023-11-22T06:38:37;101983.60;;;-6.55;100.00
44663;BME280;30381;52.754;18.258;2023-11-22T06:41:03;101990.48;;;-6.50;100.00
44663;BME280;30381;52.754;18.258;2023-11-22T06:43:30;101991.66;;;-6.43;100.00
44663;BME280;30381;52.754;18.258;2023-11-22T06:45:56;101991.33;;;-6.38;100.00
44663;BME280;30381;52.754;18.258;2023-11-22T06:48:22;101988.73;;;-6.33;100.00
44663;BME280;30381;52.754;18.258;2023-11-22T06:50:48;101996.54;;;-6.26;100.00
44663;BME280;30381;52.754;18.258;2023-11-22T06:53:14;101994.70;;;-6.19;100.00
44663;BME280;30381;52.754;18.258;2023-11-22T06:55:45;101992.00;;;-6.12;100.00
44663;BME280;30381;52.754;18.258;2023-11-22T06:58:11;101991.23;;;-6.05;100.00
44663;BME280;30381;52.754;18.258;2023-11-22T07:00:38;101988.27;;;-5.97;100.00
44663;BME280;30381;52.754;18.258;2023-11-22T07:03:06;101983.92;;;-5.90;100.00
44663;BME280;30381;52.754;18.258;2023-11-22T07:05:32;101987.38;;;-5.81;100.00
44663;BME280;30381;52.754;18.258;2023-11-22T07:07:58;102004.84;;;-5.69;100.00
44663;BME280;30381;52.754;18.258;2023-11-22T07:10:25;102005.92;;;-5.58;100.00
44663;BME280;30381;52.754;18.258;2023-11-22T07:12:52;102009.38;;;-5.46;100.00
44663;BME280;30381;52.754;18.258;2023-11-22T07:15:18;102017.77;;;-5.32;100.00
44663;BME280;30381;52.754;18.258;2023-11-22T07:17:45;102019.35;;;-5.16;100.00
44663;BME280;30381;52.754;18.258;2023-11-22T07:20:11;102021.70;;;-5.02;100.00
44663;BME280;30381;52.754;18.258;2023-11-22T07:22:42;102029.77;;;-4.88;100.00
44663;BME280;30381;52.754;18.258;2023-11-22T07:25:09;102024.98;;;-4.77;100.00
44663;BME280;30381;52.754;18.258;2023-11-22T07:27:45;102031.91;;;-4.62;100.00
44663;BME280;30381;52.754;18.258;2023-11-22T07:30:12;102039.69;;;-4.50;100.00
44663;BME280;30381;52.754;18.258;2023-11-22T07:32:42;102037.96;;;-4.41;100.00
44663;BME280;30381;52.754;18.258;2023-11-22T07:35:08;102039.46;;;-4.32;100.00
44663;BME280;30381;52.754;18.258;2023-11-22T07:37:35;102034.97;;;-4.23;100.00
44663;BME280;30381;52.754;18.258;2023-11-22T07:40:09;102055.80;;;-4.16;100.00
44663;BME280;30381;52.754;18.258;2023-11-22T07:42:36;102073.15;;;-4.12;100.00
44663;BME280;30381;52.754;18.258;2023-11-22T07:45:02;102060.96;;;-4.07;100.00
44663;BME280;30381;52.754;18.258;2023-11-22T07:47:29;102050.35;;;-3.99;100.00
44663;BME280;30381;52.754;18.258;2023-11-22T07:49:55;102058.90;;;-3.90;100.00
44663;BME280;30381;52.754;18.258;2023-11-22T07:52:22;102061.13;;;-3.84;100.00
44663;BME280;30381;52.754;18.258;2023-11-22T07:54:48;102062.01;;;-3.81;100.00
44663;BME280;30381;52.754;18.258;2023-11-22T07:57:15;102065.80;;;-3.75;100.00
44663;BME280;30381;52.754;18.258;2023-11-22T07:59:42;102066.99;;;-3.70;100.00
44663;BME280;30381;52.754;18.258;2023-11-22T08:02:08;102073.58;;;-3.63;100.00
44663;BME280;30381;52.754;18.258;2023-11-22T08:04:37;102073.73;;;-3.59;100.00
44663;BME280;30381;52.754;18.258;2023-11-22T08:07:03;102068.04;;;-3.58;100.00
44663;BME280;30381;52.754;18.258;2023-11-22T08:09:30;102055.96;;;-3.56;100.00
44663;BME280;30381;52.754;18.258;2023-11-22T08:12:01;102059.12;;;-3.54;100.00
44663;BME280;30381;52.754;18.258;2023-11-22T08:14:28;102074.14;;;-3.52;100.00
44663;BME280;30381;52.754;18.258;2023-11-22T08:16:56;102086.70;;;-3.50;100.00
44663;BME280;30381;52.754;18.258;2023-11-22T08:19:22;102091.15;;;-3.45;100.00
44663;BME280;30381;52.754;18.258;2023-11-22T08:21:50;102083.69;;;-3.38;100.00
44663;BME280;30381;52.754;18.258;2023-11-22T08:24:16;102082.02;;;-3.32;100.00
44663;BME280;30381;52.754;18.258;2023-11-22T08:26:45;102061.92;;;-3.29;100.00
44663;BME280;30381;52.754;18.258;2023-11-22T08:29:11;102062.23;;;-3.26;100.00
44663;BME280;30381;52.754;18.258;2023-11-22T08:31:37;102058.92;;;-3.24;100.00
44663;BME280;30381;52.754;18.258;2023-11-22T08:34:03;102050.95;;;-3.24;100.00
44663;BME280;30381;52.754;18.258;2023-11-22T08:36:33;102041.13;;;-3.25;100.00
44663;BME280;30381;52.754;18.258;2023-11-22T08:39:02;102033.54;;;-3.22;100.00
44663;BME280;30381;52.754;18.258;2023-11-22T08:41:30;102025.60;;;-3.20;100.00
44663;BME280;30381;52.754;18.258;2023-11-22T08:43:57;102030.90;;;-3.18;100.00
44663;BME280;30381;52.754;18.258;2023-11-22T08:46:24;102040.77;;;-3.15;100.00
44663;BME280;30381;52.754;18.258;2023-11-22T08:48:50;102037.83;;;-3.11;100.00
44663;BME280;30381;52.754;18.258;2023-11-22T08:51:19;102031.36;;;-3.08;100.00
44663;BME280;30381;52.754;18.258;2023-11-22T08:53:45;102030.48;;;-3.02;100.00
44663;BME280;30381;52.754;18.258;2023-11-22T08:56:11;102048.88;;;-2.98;100.00
44663;BME280;30381;52.754;18.258;2023-11-22T08:58:39;102050.44;;;-2.93;100.00
44663;BME280;30381;52.754;18.258;2023-11-22T09:01:08;102042.10;;;-2.90;100.00
44663;BME280;30381;52.754;18.258;2023-11-22T09:03:35;102047.52;;;-2.85;100.00
44663;BME280;30381;52.754;18.258;2023-11-22T09:06:01;102055.64;;;-2.81;100.00
44663;BME280;30381;52.754;18.258;2023-11-22T09:08:28;102056.77;;;-2.75;100.00
44663;BME280;30381;52.754;18.258;2023-11-22T09:10:55;102057.43;;;-2.70;100.00
44663;BME280;30381;52.754;18.258;2023-11-22T09:13:22;102060.24;;;-2.65;100.00
44663;BME280;30381;52.754;18.258;2023-11-22T09:15:48;102059.71;;;-2.60;100.00
44663;BME280;30381;52.754;18.258;2023-11-22T09:18:15;102051.27;;;-2.53;100.00
44663;BME280;30381;52.754;18.258;2023-11-22T09:20:41;102044.58;;;-2.49;100.00
44663;BME280;30381;52.754;18.258;2023-11-22T09:23:10;102040.95;;;-2.45;100.00
44663;BME280;30381;52.754;18.258;2023-11-22T09:25:37;102039.79;;;-2.42;100.00
44663;BME280;30381;52.754;18.258;2023-11-22T09:28:24;102035.92;;;-2.35;100.00
44663;BME280;30381;52.754;18.258;2023-11-22T09:31:00;102033.41;;;-2.26;100.00
44663;BME280;30381;52.754;18.258;2023-11-22T09:33:58;102037.52;;;-2.15;100.00
44663;BME280;30381;52.754;18.258;2023-11-22T09:40:57;102034.02;;;-1.98;100.00
44663;BME280;30381;52.754;18.258;2023-11-22T09:43:38;102032.42;;;-1.87;100.00
44663;BME280;30381;52.754;18.258;2023-11-22T09:46:08;102034.39;;;-1.76;100.00
44663;BME280;30381;52.754;18.258;2023-11-22T09:48:39;102028.91;;;-1.71;100.00
44663;BME280;30381;52.754;18.258;2023-11-22T09:53:40;102032.84;;;-1.67;100.00
44663;BME280;30381;52.754;18.258;2023-11-22T09:57:02;102033.59;;;-1.61;100.00
44663;BME280;30381;52.754;18.258;2023-11-22T10:40:56;102049.02;;;-0.04;100.00
44663;BME280;30381;52.754;18.258;2023-11-22T10:43:34;102061.11;;;0.04;100.00
44663;BME280;30381;52.754;18.258;2023-11-22T10:46:04;102056.34;;;0.12;100.00
44663;BME280;30381;52.754;18.258;2023-11-22T10:48:41;102047.94;;;0.21;100.00
44663;BME280;30381;52.754;18.258;2023-11-22T10:51:15;102036.61;;;0.26;100.00
44663;BME280;30381;52.754;18.258;2023-11-22T10:53:48;102024.90;;;0.31;100.00
44663;BME280;30381;52.754;18.258;2023-11-22T10:56:17;102023.03;;;0.36;100.00
44663;BME280;30381;52.754;18.258;2023-11-22T10:58:54;102029.86;;;0.31;100.00
44663;BME280;30381;52.754;18.258;2023-11-22T11:01:25;102020.43;;;0.17;100.00
44663;BME280;30381;52.754;18.258;2023-11-22T11:06:55;102006.25;;;0.19;100.00
44663;BME280;30381;52.754;18.258;2023-11-22T11:10:12;102009.58;;;0.21;100.00
44663;BME280;30381;52.754;18.258;2023-11-22T11:26:52;102027.02;;;0.66;100.00
44663;BME280;30381;52.754;18.258;2023-11-22T11:30:03;102020.91;;;0.79;100.00
44663;BME280;30381;52.754;18.258;2023-11-22T11:32:50;102011.95;;;0.84;100.00
44663;BME280;30381;52.754;18.258;2023-11-22T11:39:21;102006.85;;;0.62;100.00
44663;BME280;30381;52.754;18.258;2023-11-22T11:42:25;102012.39;;;0.49;100.00
44663;BME280;30381;52.754;18.258;2023-11-22T11:45:27;102028.25;;;0.39;100.00
44663;BME280;30381;52.754;18.258;2023-11-22T11:48:22;102028.98;;;0.31;100.00
44663;BME280;30381;52.754;18.258;2023-11-22T11:51:40;102019.52;;;0.33;100.00
44663;BME280;30381;52.754;18.258;2023-11-22T11:58:09;102026.11;;;0.43;100.00
44663;BME280;30381;52.754;18.258;2023-11-22T12:00:46;102018.79;;;0.41;100.00
44663;BME280;30381;52.754;18.258;2023-11-22T12:03:18;102010.67;;;0.43;100.00
44663;BME280;30381;52.754;18.258;2023-11-22T12:06:30;102003.77;;;0.45;100.00
44663;BME280;30381;52.754;18.258;2023-11-22T12:12:49;102006.45;;;0.42;100.00
44663;BME280;30381;52.754;18.258;2023-11-22T12:15:47;102008.98;;;0.40;100.00
44663;BME280;30381;52.754;18.258;2023-11-22T12:18:57;102007.61;;;0.37;100.00
44663;BME280;30381;52.754;18.258;2023-11-22T12:21:46;102002.51;;;0.35;100.00
44663;BME280;30381;52.754;18.258;2023-11-22T12:24:21;102003.59;;;0.33;100.00
44663;BME280;30381;52.754;18.258;2023-11-22T12:27:13;102007.30;;;0.31;100.00
44663;BME280;30381;52.754;18.258;2023-11-22T12:29:55;102002.85;;;0.31;100.00
44663;BME280;30381;52.754;18.258;2023-11-22T12:35:38;101992.80;;;0.32;100.00
44663;BME280;30381;52.754;18.258;2023-11-22T12:48:51;101962.89;;;0.25;100.00
44663;BME280;30381;52.754;18.258;2023-11-22T12:51:19;101962.67;;;0.26;100.00
44663;BME280;30381;52.754;18.258;2023-11-22T12:53:52;101963.02;;;0.24;100.00
44663;BME280;30381;52.754;18.258;2023-11-22T12:56:19;101962.20;;;0.24;100.00
44663;BME280;30381;52.754;18.258;2023-11-22T12:58:45;101958.03;;;0.24;100.00
44663;BME280;30381;52.754;18.258;2023-11-22T13:01:14;101965.36;;;0.24;100.00
44663;BME280;30381;52.754;18.258;2023-11-22T13:03:41;101971.83;;;0.21;100.00
44663;BME280;30381;52.754;18.258;2023-11-22T13:06:08;101976.64;;;0.17;100.00
44663;BME280;30381;52.754;18.258;2023-11-22T13:08:34;101969.40;;;0.13;100.00
44663;BME280;30381;52.754;18.258;2023-11-22T13:11:02;101971.63;;;0.10;100.00
44663;BME280;30381;52.754;18.258;2023-11-22T13:13:28;101973.41;;;0.07;100.00
44663;BME280;30381;52.754;18.258;2023-11-22T13:15:56;101967.17;;;0.04;100.00
44663;BME280;30381;52.754;18.258;2023-11-22T13:18:24;101963.84;;;-0.01;100.00
44663;BME280;30381;52.754;18.258;2023-11-22T13:20:52;101953.61;;;-0.03;100.00
44663;BME280;30381;52.754;18.258;2023-11-22T13:23:18;101943.97;;;-0.08;100.00
44663;BME280;30381;52.754;18.258;2023-11-22T13:25:45;101938.52;;;-0.15;100.00
44663;BME280;30381;52.754;18.258;2023-11-22T13:28:15;101933.20;;;-0.21;100.00
44663;BME280;30381;52.754;18.258;2023-11-22T13:30:44;101929.15;;;-0.27;100.00
44663;BME280;30381;52.754;18.258;2023-11-22T13:33:11;101934.20;;;-0.34;100.00
44663;BME280;30381;52.754;18.258;2023-11-22T13:35:42;101940.05;;;-0.42;100.00
44663;BME280;30381;52.754;18.258;2023-11-22T13:38:12;101944.50;;;-0.49;100.00
44663;BME280;30381;52.754;18.258;2023-11-22T13:40:41;101943.42;;;-0.55;100.00
44663;BME280;30381;52.754;18.258;2023-11-22T13:43:11;101941.63;;;-0.61;100.00
44663;BME280;30381;52.754;18.258;2023-11-22T13:45:40;101935.42;;;-0.67;100.00
44663;BME280;30381;52.754;18.258;2023-11-22T13:48:07;101936.02;;;-0.74;100.00
44663;BME280;30381;52.754;18.258;2023-11-22T13:50:37;101941.52;;;-0.80;100.00
44663;BME280;30381;52.754;18.258;2023-11-22T13:53:04;101937.56;;;-0.85;100.00
44663;BME280;30381;52.754;18.258;2023-11-22T13:55:34;101942.30;;;-0.91;100.00
44663;BME280;30381;52.754;18.258;2023-11-22T13:58:04;101950.73;;;-0.97;100.00
44663;BME280;30381;52.754;18.258;2023-11-22T14:00:31;101975.84;;;-1.00;100.00
44663;BME280;30381;52.754;18.258;2023-11-22T14:03:08;101982.48;;;-1.05;100.00
44663;BME280;30381;52.754;18.258;2023-11-22T14:05:37;101981.06;;;-1.08;100.00
44663;BME280;30381;52.754;18.258;2023-11-22T14:08:43;101986.73;;;-1.10;100.00
44663;BME280;30381;52.754;18.258;2023-11-22T14:11:13;101993.54;;;-1.11;100.00
44663;BME280;30381;52.754;18.258;2023-11-22T14:13:39;101990.29;;;-1.10;100.00